Kandilousa — SYIF — position and weather

sailwx.info

Track history (hours):
 
Tides and Currents Weather Stations Pressure Air Temp Water Temp Dewpoint Dewpoint Depression Visibility Wind Speed Wind Dir Waves Ship Positions

Kandilousa

Last reported at 2014-Jul-24 00:17 UTC. Time now 2014-Jul-24 20:12 UTC.
Position N 40°31' W 066°19'.

Length 183 m; draft 8 m.

Type: Tanker. MMSI: 239354000.

Date/timePositionNaut miles runAvg speedWind from/ knotsBaromVisibWave heightAir tempDewpointWater temp
2014-Jul-24 00:17N 40°31' W 066°19'2 1.9
2014-Jul-23 23:28N 40°31' W 066°20'3 1.3
2014-Jul-23 21:03N 40°30' W 066°24'1 1.0
2014-Jul-23 20:23N 40°30' W 066°25'1 1.0
2014-Jul-23 19:23N 40°29' W 066°26'1 0.7
2014-Jul-23 18:33N 40°29' W 066°27'2 0.7
2014-Jul-23 15:28N 40°29' W 066°30'28 9.2
2014-Jul-23 12:26N 40°28' W 067°07'910.4
2014-Jul-23 11:33N 40°28' W 067°19'1010.1
2014-Jul-23 10:33N 40°28' W 067°32'9 9.4
2014-Jul-23 09:33N 40°28' W 067°44'10 9.9
2014-Jul-23 08:33N 40°28' W 067°57'10 9.7
2014-Jul-23 07:33N 40°27' W 068°10'9 9.4
2014-Jul-23 06:33N 40°27' W 068°23'1010.2
2014-Jul-23 05:33N 40°27' W 068°36'1110.6
2014-Jul-23 04:33N 40°26' W 068°50'1110.8
2014-Jul-23 03:33N 40°27' W 069°04'1110.6
2014-Jul-23 02:33N 40°26' W 069°18'1111.1
2014-Jul-23 01:33N 40°26' W 069°33'1111.0
2014-Jul-23 00:33N 40°26' W 069°47'1210.9
2014-Jul-22 23:28N 40°26' W 070°02'1010.7
2014-Jul-22 22:33N 40°25' W 070°15'1010.4
2014-Jul-22 21:33N 40°25' W 070°29'1010.4
2014-Jul-22 20:33N 40°24' W 070°43'1110.6
2014-Jul-22 19:33N 40°25' W 070°57'1010.5
2014-Jul-22 18:33N 40°24' W 071°10'1110.5
2014-Jul-22 17:33N 40°24' W 071°24'1010.2
2014-Jul-22 16:33N 40°24' W 071°38'1010.0
2014-Jul-22 15:33N 40°23' W 071°51'1010.3
2014-Jul-22 14:33N 40°23' W 072°04'1010.4
2014-Jul-22 13:33N 40°23' W 072°18'1010.0
2014-Jul-22 12:33N 40°22' W 072°31'1010.1
2014-Jul-22 11:33N 40°22' W 072°44'1010.4
2014-Jul-22 10:33N 40°22' W 072°58'10 9.9
2014-Jul-22 09:34N 40°22' W 073°11'1010.4
2014-Jul-22 08:33N 40°23' W 073°24'1010.3
2014-Jul-22 07:33N 40°25' W 073°38'1110.7
2014-Jul-22 06:33N 40°28' W 073°51'1111.5
2014-Jul-22 05:33N 40°35' W 074°02'3 2.6
2014-Jul-22 04:32N 40°38' W 074°04'0 0.0
2014-Jul-22 03:33N 40°38' W 074°04'2 1.7
2014-Jul-22 02:33N 40°39' W 074°05'0 0.0
2014-Jul-21 19:48N 40°39' W 074°05'0 0.0
2014-Jul-21 19:30N 40°39' W 074°05'0 0.0
2014-Jul-21 18:24N 40°39' W 074°05'0 0.0
2014-Jul-21 17:12N 40°39' W 074°05'0 0.0
2014-Jul-21 16:33N 40°39' W 074°05'0 0.0
2014-Jul-21 15:30N 40°39' W 074°05'0 0.0
2014-Jul-21 14:33N 40°39' W 074°05'0 0.0
2014-Jul-21 13:33N 40°39' W 074°05'0 0.0
2014-Jul-21 12:30N 40°39' W 074°05'0 0.0
2014-Jul-21 11:30N 40°39' W 074°05'0 0.0
2014-Jul-21 10:33N 40°39' W 074°05'0 0.0
2014-Jul-21 08:18N 40°39' W 074°05'0 0.0
2014-Jul-21 07:33N 40°39' W 074°05'0 0.0
2014-Jul-21 06:33N 40°39' W 074°05'0 0.0
2014-Jul-21 05:33N 40°39' W 074°05'0 0.0
2014-Jul-21 04:18N 40°39' W 074°05'0 0.0
2014-Jul-21 03:12N 40°39' W 074°05'0 0.0
2014-Jul-21 02:33N 40°39' W 074°05'1 1.1
2014-Jul-21 01:32N 40°39' W 074°07'0 0.0
2014-Jul-20 01:11N 40°39' W 074°07'2 3.8
2014-Jul-20 00:33N 40°39' W 074°04'8 8.4
2014-Jul-19 23:33N 40°31' W 073°59'16 5.3
2014-Jul-19 20:27N 40°29' W 073°38'0 0.0
2014-Jul-19 19:27N 40°29' W 073°38'0 0.0
2014-Jul-19 16:19N 40°29' W 073°38'0 0.0
2014-Jul-19 13:22N 40°29' W 073°38'0 0.1
2014-Jul-19 12:33N 40°29' W 073°38'0 0.1
2014-Jul-19 11:33N 40°29' W 073°38'0 0.0
2014-Jul-19 10:33N 40°29' W 073°38'0 0.0
2014-Jul-19 09:33N 40°29' W 073°38'0 0.0
2014-Jul-19 08:33N 40°29' W 073°38'0 0.0
2014-Jul-19 06:29N 40°29' W 073°38'0 0.0
2014-Jul-19 05:33N 40°29' W 073°38'0 0.0
2014-Jul-19 04:33N 40°29' W 073°38'0 0.0
2014-Jul-19 03:33N 40°29' W 073°38'0 0.3
2014-Jul-19 02:31N 40°29' W 073°38'10211.4
2014-Jul-18 17:33N 40°32' W 071°24'1312.7
2014-Jul-18 16:33N 40°32' W 071°07'1111.1
2014-Jul-18 15:33N 40°33' W 070°53'1312.6
2014-Jul-18 14:33N 40°33' W 070°36'1212.4
2014-Jul-18 13:33N 40°33' W 070°20'1312.6
2014-Jul-18 12:33N 40°34' W 070°03'1312.5
2014-Jul-18 11:33N 40°34' W 069°47'1312.5
2014-Jul-18 10:33N 40°34' W 069°30'1212.0
2014-Jul-18 09:33N 40°35' W 069°14'1211.5
2014-Jul-18 08:33N 40°37' W 068°59'1211.6
2014-Jul-18 07:33N 40°38' W 068°44'1212.2
2014-Jul-18 06:33N 40°40' W 068°28'1312.5
2014-Jul-18 05:31N 40°42' W 068°11'1212.4
2014-Jul-18 04:33N 40°43' W 067°56'1312.6
2014-Jul-18 03:33N 40°45' W 067°39'  
Track history (hours):
 
Tides and Currents Weather Stations Pressure Air Temp Water Temp Dewpoint Dewpoint Depression Visibility Wind Speed Wind Dir Waves Ship Positions

Kandilousa

Last reported at 2014-Jul-24 00:17 UTC. Time now 2014-Jul-24 20:12 UTC.
Position N 40°31' W 066°19'.

Length 183 m; draft 8 m.

Type: Tanker. MMSI: 239354000.

Date/timePositionNaut miles runAvg speedWind from/ knotsBaromVisibWave heightAir tempDewpointWater temp
2014-Jul-24 00:17N 40°31' W 066°19'2 1.9
2014-Jul-23 23:28N 40°31' W 066°20'3 1.3
2014-Jul-23 21:03N 40°30' W 066°24'1 1.0
2014-Jul-23 20:23N 40°30' W 066°25'1 1.0
2014-Jul-23 19:23N 40°29' W 066°26'1 0.7
2014-Jul-23 18:33N 40°29' W 066°27'2 0.7
2014-Jul-23 15:28N 40°29' W 066°30'28 9.2
2014-Jul-23 12:26N 40°28' W 067°07'910.4
2014-Jul-23 11:33N 40°28' W 067°19'1010.1
2014-Jul-23 10:33N 40°28' W 067°32'9 9.4
2014-Jul-23 09:33N 40°28' W 067°44'10 9.9
2014-Jul-23 08:33N 40°28' W 067°57'10 9.7
2014-Jul-23 07:33N 40°27' W 068°10'9 9.4
2014-Jul-23 06:33N 40°27' W 068°23'1010.2
2014-Jul-23 05:33N 40°27' W 068°36'1110.6
2014-Jul-23 04:33N 40°26' W 068°50'1110.8
2014-Jul-23 03:33N 40°27' W 069°04'1110.6
2014-Jul-23 02:33N 40°26' W 069°18'1111.1
2014-Jul-23 01:33N 40°26' W 069°33'1111.0
2014-Jul-23 00:33N 40°26' W 069°47'1210.9
2014-Jul-22 23:28N 40°26' W 070°02'1010.7
2014-Jul-22 22:33N 40°25' W 070°15'1010.4
2014-Jul-22 21:33N 40°25' W 070°29'1010.4
2014-Jul-22 20:33N 40°24' W 070°43'1110.6
2014-Jul-22 19:33N 40°25' W 070°57'1010.5
2014-Jul-22 18:33N 40°24' W 071°10'1110.5
2014-Jul-22 17:33N 40°24' W 071°24'1010.2
2014-Jul-22 16:33N 40°24' W 071°38'1010.0
2014-Jul-22 15:33N 40°23' W 071°51'1010.3
2014-Jul-22 14:33N 40°23' W 072°04'1010.4
2014-Jul-22 13:33N 40°23' W 072°18'1010.0
2014-Jul-22 12:33N 40°22' W 072°31'1010.1
2014-Jul-22 11:33N 40°22' W 072°44'1010.4
2014-Jul-22 10:33N 40°22' W 072°58'10 9.9
2014-Jul-22 09:34N 40°22' W 073°11'1010.4
2014-Jul-22 08:33N 40°23' W 073°24'1010.3
2014-Jul-22 07:33N 40°25' W 073°38'1110.7
2014-Jul-22 06:33N 40°28' W 073°51'1111.5
2014-Jul-22 05:33N 40°35' W 074°02'3 2.6
2014-Jul-22 04:32N 40°38' W 074°04'0 0.0
2014-Jul-22 03:33N 40°38' W 074°04'2 1.7
2014-Jul-22 02:33N 40°39' W 074°05'0 0.0
2014-Jul-21 19:48N 40°39' W 074°05'0 0.0
2014-Jul-21 19:30N 40°39' W 074°05'0 0.0
2014-Jul-21 18:24N 40°39' W 074°05'0 0.0
2014-Jul-21 17:12N 40°39' W 074°05'0 0.0
2014-Jul-21 16:33N 40°39' W 074°05'0 0.0
2014-Jul-21 15:30N 40°39' W 074°05'0 0.0
2014-Jul-21 14:33N 40°39' W 074°05'0 0.0
2014-Jul-21 13:33N 40°39' W 074°05'0 0.0
2014-Jul-21 12:30N 40°39' W 074°05'0 0.0
2014-Jul-21 11:30N 40°39' W 074°05'0 0.0
2014-Jul-21 10:33N 40°39' W 074°05'0 0.0
2014-Jul-21 08:18N 40°39' W 074°05'0 0.0
2014-Jul-21 07:33N 40°39' W 074°05'0 0.0
2014-Jul-21 06:33N 40°39' W 074°05'0 0.0
2014-Jul-21 05:33N 40°39' W 074°05'0 0.0
2014-Jul-21 04:18N 40°39' W 074°05'0 0.0
2014-Jul-21 03:12N 40°39' W 074°05'0 0.0
2014-Jul-21 02:33N 40°39' W 074°05'1 1.1
2014-Jul-21 01:32N 40°39' W 074°07'0 0.0
2014-Jul-20 01:11N 40°39' W 074°07'2 3.8
2014-Jul-20 00:33N 40°39' W 074°04'8 8.4
2014-Jul-19 23:33N 40°31' W 073°59'16 5.3
2014-Jul-19 20:27N 40°29' W 073°38'0 0.0
2014-Jul-19 19:27N 40°29' W 073°38'0 0.0
2014-Jul-19 16:19N 40°29' W 073°38'0 0.0
2014-Jul-19 13:22N 40°29' W 073°38'0 0.1
2014-Jul-19 12:33N 40°29' W 073°38'0 0.1
2014-Jul-19 11:33N 40°29' W 073°38'0 0.0
2014-Jul-19 10:33N 40°29' W 073°38'0 0.0
2014-Jul-19 09:33N 40°29' W 073°38'0 0.0
2014-Jul-19 08:33N 40°29' W 073°38'0 0.0
2014-Jul-19 06:29N 40°29' W 073°38'0 0.0
2014-Jul-19 05:33N 40°29' W 073°38'0 0.0
2014-Jul-19 04:33N 40°29' W 073°38'0 0.0
2014-Jul-19 03:33N 40°29' W 073°38'0 0.3
2014-Jul-19 02:31N 40°29' W 073°38'10211.4
2014-Jul-18 17:33N 40°32' W 071°24'1312.7
2014-Jul-18 16:33N 40°32' W 071°07'1111.1
2014-Jul-18 15:33N 40°33' W 070°53'1312.6
2014-Jul-18 14:33N 40°33' W 070°36'1212.4
2014-Jul-18 13:33N 40°33' W 070°20'1312.6
2014-Jul-18 12:33N 40°34' W 070°03'1312.5
2014-Jul-18 11:33N 40°34' W 069°47'1312.5
2014-Jul-18 10:33N 40°34' W 069°30'1212.0
2014-Jul-18 09:33N 40°35' W 069°14'1211.5
2014-Jul-18 08:33N 40°37' W 068°59'1211.6
2014-Jul-18 07:33N 40°38' W 068°44'1212.2
2014-Jul-18 06:33N 40°40' W 068°28'1312.5
2014-Jul-18 05:31N 40°42' W 068°11'1212.4
2014-Jul-18 04:33N 40°43' W 067°56'1312.6
2014-Jul-18 03:33N 40°45' W 067°39'  

Dump ship's entire track history